createdAt,value
2022-09-25T00:03:43.475Z,29.00
2022-09-25T00:13:56.253Z,29.00
2022-09-25T00:24:11.067Z,29.40
2022-09-25T00:34:19.120Z,29.60
2022-09-25T00:45:02.348Z,29.10
2022-09-25T00:55:14.664Z,28.80
2022-09-25T01:05:32.685Z,29.00
2022-09-25T01:15:46.173Z,29.00
2022-09-25T01:26:07.514Z,28.70
2022-09-25T01:36:23.707Z,28.00
2022-09-25T01:46:36.277Z,27.40
2022-09-25T01:56:50.973Z,26.90
2022-09-25T02:07:01.871Z,26.50
2022-09-25T02:28:08.383Z,26.10
2022-09-25T02:38:20.944Z,25.90
2022-09-25T02:48:42.528Z,25.80
2022-09-25T02:58:55.728Z,25.70
2022-09-25T03:09:14.382Z,25.60
2022-09-25T03:19:24.414Z,25.50
2022-09-25T03:29:32.815Z,25.50
2022-09-25T03:51:27.567Z,25.40
2022-09-25T04:01:39.972Z,25.40
2022-09-25T04:11:53.844Z,25.30
2022-09-25T04:22:09.779Z,25.40
2022-09-25T04:32:36.370Z,25.30
2022-09-25T04:42:45.462Z,25.30
2022-09-25T04:52:56.118Z,25.30
2022-09-25T05:03:07.298Z,25.20
2022-09-25T05:13:18.218Z,25.30
2022-09-25T05:23:33.391Z,25.20
2022-09-25T05:33:40.763Z,25.20
2022-09-25T05:43:51.469Z,25.20
2022-09-25T05:53:59.105Z,25.20
2022-09-25T06:04:09.661Z,25.20
2022-09-25T06:14:20.486Z,25.20
2022-09-25T06:24:30.085Z,25.20
2022-09-25T06:34:48.691Z,25.10
2022-09-25T06:45:07.420Z,25.10
2022-09-25T06:55:14.890Z,25.10
2022-09-25T07:05:25.067Z,25.10
2022-09-25T07:15:32.704Z,25.10
2022-09-25T07:25:41.746Z,25.10
2022-09-25T07:35:49.211Z,25.10
2022-09-25T07:45:58.086Z,25.10
2022-09-25T07:56:07.125Z,25.10
2022-09-25T08:06:17.115Z,25.10
2022-09-25T08:16:27.935Z,25.10
2022-09-25T08:26:37.543Z,25.10
2022-09-25T08:36:44.835Z,25.10
2022-09-25T08:47:18.487Z,25.10
2022-09-25T08:57:36.031Z,25.00
2022-09-25T09:07:51.228Z,25.00
2022-09-25T09:18:00.235Z,25.00
2022-09-25T09:28:30.095Z,25.00
2022-09-25T09:38:45.218Z,25.00
2022-09-25T09:49:05.202Z,25.00
2022-09-25T09:59:19.349Z,25.00
2022-09-25T10:09:34.933Z,25.00
2022-09-25T10:19:51.648Z,25.00
2022-09-25T10:30:27.293Z,25.00
2022-09-25T10:40:37.997Z,25.00
2022-09-25T10:50:47.981Z,25.00
2022-09-25T11:00:59.324Z,25.00
2022-09-25T11:11:10.498Z,25.00
2022-09-25T11:21:31.407Z,25.00
2022-09-25T11:31:45.605Z,24.90
2022-09-25T11:42:00.530Z,24.90
2022-09-25T11:52:42.866Z,24.90
2022-09-25T12:03:05.509Z,24.90
2022-09-25T12:13:20.630Z,24.90
2022-09-25T12:23:37.834Z,24.90
2022-09-25T12:33:56.200Z,24.90
2022-09-25T12:44:13.166Z,24.90
2022-09-25T12:54:28.355Z,24.90
2022-09-25T13:04:52.417Z,24.90
2022-09-25T13:15:03.959Z,24.90
2022-09-25T13:25:19.463Z,24.90
2022-09-25T13:35:27.460Z,24.80
2022-09-25T13:45:38.256Z,24.90
2022-09-25T13:55:46.060Z,24.80
2022-09-25T14:05:55.640Z,24.90
2022-09-25T14:16:04.731Z,24.90
2022-09-25T14:26:23.647Z,24.90
2022-09-25T14:36:40.753Z,24.90
2022-09-25T14:46:54.987Z,24.90
2022-09-25T14:57:03.109Z,24.90
2022-09-25T15:07:21.046Z,24.90
2022-09-25T15:17:30.259Z,24.90
2022-09-25T15:27:45.316Z,25.00
2022-09-25T15:37:52.898Z,25.00
2022-09-25T15:48:02.650Z,25.00
2022-09-25T15:58:16.096Z,25.10
2022-09-25T16:08:33.197Z,25.10
2022-09-25T16:18:43.793Z,25.10
2022-09-25T16:29:02.711Z,25.10
2022-09-25T16:39:30.256Z,25.10
2022-09-25T16:49:39.377Z,25.20
2022-09-25T16:59:51.397Z,25.20
2022-09-25T17:10:03.902Z,25.20
2022-09-25T17:20:14.268Z,25.20
2022-09-25T17:30:23.958Z,25.20
2022-09-25T17:40:38.043Z,25.20
2022-09-25T17:50:49.175Z,25.20
2022-09-25T18:01:01.920Z,25.20
2022-09-25T18:11:14.565Z,25.20
2022-09-25T18:21:39.170Z,25.20
2022-09-25T18:31:49.848Z,25.20
2022-09-25T18:41:57.339Z,25.20
2022-09-25T18:52:07.028Z,25.20
2022-09-25T19:02:28.332Z,25.20
2022-09-25T19:12:37.600Z,25.20
2022-09-25T19:22:46.041Z,25.20
2022-09-25T19:32:58.463Z,25.20
2022-09-25T19:43:05.653Z,25.20
2022-09-25T19:53:14.762Z,25.20
2022-09-25T20:03:25.292Z,25.20
2022-09-25T20:13:44.213Z,25.20
2022-09-25T20:23:54.471Z,25.20
2022-09-25T20:34:04.376Z,25.20
2022-09-25T20:44:11.847Z,25.30
2022-09-25T20:54:21.602Z,25.30
2022-09-25T21:04:28.959Z,25.30
2022-09-25T21:14:38.247Z,25.30
2022-09-25T21:24:45.677Z,25.30
2022-09-25T21:34:56.396Z,25.40
2022-09-25T21:45:05.917Z,25.50
2022-09-25T21:55:15.535Z,25.50
2022-09-25T22:05:22.994Z,25.60
2022-09-25T22:15:32.060Z,25.70
2022-09-25T22:25:39.556Z,25.70
2022-09-25T22:35:49.297Z,25.90
2022-09-25T22:45:56.975Z,26.00
2022-09-25T22:56:15.029Z,26.20
2022-09-25T23:06:22.623Z,26.50
2022-09-25T23:16:33.848Z,26.70
2022-09-25T23:26:41.588Z,27.10
2022-09-25T23:36:51.451Z,27.70
2022-09-25T23:47:03.923Z,28.40
2022-09-25T23:57:16.232Z,28.70
